Time;durP1;ratioP1;P1;durP2;ratioP2;P2;SDS_P1;SDS_P2;PMS_P1;PMS_P2;Temp;Humidity;BMP_temperature;BMP_pressure;BME280_temperature;BME280_humidity;BME280_pressure;Samples;Min_cycle;Max_cycle;Signal;HPM_P1;HPM_P2
2022/10/25 00:01:10;;;;;;;0.37;0.30;;;12.80;99.90;;;;;;5084708;28;20193;-52
2022/10/25 00:03:37;;;;;;;0.30;0.30;;;12.80;99.90;;;;;;5084535;28;20218;-51
2022/10/25 00:06:04;;;;;;;1.20;0.20;;;12.80;99.90;;;;;;5073604;28;20205;-52
2022/10/25 00:08:31;;;;;;;0.83;0.30;;;12.70;99.90;;;;;;5078707;28;20193;-51
2022/10/25 00:10:58;;;;;;;2.10;0.40;;;12.70;99.90;;;;;;5081563;28;20193;-54
2022/10/25 00:13:27;;;;;;;0.10;0.10;;;12.60;99.90;;;;;;5072957;28;20228;-52
2022/10/25 00:15:54;;;;;;;1.37;0.30;;;12.60;99.90;;;;;;5077371;28;20617;-53
2022/10/25 00:18:21;;;;;;;0.23;0.23;;;12.60;99.90;;;;;;5081545;28;20216;-53
2022/10/25 00:20:48;;;;;;;0.30;0.30;;;12.50;99.90;;;;;;5076171;28;20204;-52
2022/10/25 00:23:15;;;;;;;0.10;0.10;;;12.50;99.90;;;;;;5079260;28;20212;-52
2022/10/25 00:25:43;;;;;;;0.30;0.30;;;12.60;99.90;;;;;;5073005;28;20201;-51
2022/10/25 00:28:10;;;;;;;0.30;0.30;;;12.70;99.90;;;;;;5079706;28;20197;-53
2022/10/25 00:30:39;;;;;;;0.40;0.30;;;12.80;99.90;;;;;;5088439;28;20196;-52
2022/10/25 00:33:06;;;;;;;0.27;0.20;;;12.70;99.90;;;;;;5080109;28;20626;-52
2022/10/25 00:35:35;;;;;;;0.50;0.50;;;12.70;99.90;;;;;;5081015;28;20612;-52
2022/10/25 00:38:02;;;;;;;1.93;0.30;;;12.70;99.90;;;;;;5072712;28;20270;-52
2022/10/25 00:40:29;;;;;;;1.27;0.20;;;12.60;99.90;;;;;;5072740;28;20216;-52
2022/10/25 00:42:56;;;;;;;1.47;0.33;;;12.60;99.90;;;;;;5072536;28;20204;-52
2022/10/25 00:45:25;;;;;;;1.13;0.40;;;12.60;99.90;;;;;;5081362;28;20727;-52
2022/10/25 00:47:59;;;;;;;0.47;0.40;;;12.70;99.90;;;;;;5089330;28;20253;-53
2022/10/25 00:50:35;;;;;;;0.30;0.30;;;12.70;99.90;;;;;;5087779;28;20228;-53
2022/10/25 00:53:08;;;;;;;0.37;0.30;;;12.60;99.90;;;;;;5092614;28;20302;-52
2022/10/25 00:55:36;;;;;;;0.63;0.63;;;12.60;99.90;;;;;;5092936;28;20200;-52
2022/10/25 00:58:07;;;;;;;0.57;0.47;;;12.60;99.90;;;;;;5083911;28;20223;-51
2022/10/25 01:00:35;;;;;;;0.30;0.30;;;12.60;99.90;;;;;;5084312;28;20254;-52
2022/10/25 01:03:04;;;;;;;1.70;0.20;;;12.60;99.90;;;;;;5080223;28;20655;-54
2022/10/25 01:05:32;;;;;;;1.60;0.30;;;12.70;99.90;;;;;;5072201;28;20200;-52
2022/10/25 01:07:59;;;;;;;0.30;0.30;;;12.60;99.90;;;;;;5081709;28;20640;-52
2022/10/25 01:10:26;;;;;;;0.20;0.20;;;12.60;99.90;;;;;;5080173;28;20251;-53
2022/10/25 01:12:53;;;;;;;0.97;0.67;;;12.60;99.90;;;;;;5080484;28;20267;-52
2022/10/25 01:15:24;;;;;;;0.20;0.20;;;12.70;99.90;;;;;;5083491;28;20705;-52
2022/10/25 01:17:55;;;;;;;0.37;0.23;;;12.70;99.90;;;;;;5073579;28;20278;-52
2022/10/25 01:21:05;;;;;;;2.20;0.30;;;12.70;99.90;;;;;;5071917;28;20205;-51
2022/10/25 01:23:50;;;;;;;1.20;0.40;;;12.70;99.90;;;;;;5074940;28;20220;-51
2022/10/25 01:26:52;;;;;;;0.20;0.20;;;12.70;99.90;;;;;;5086010;28;20200;-52
2022/10/25 01:29:44;;;;;;;0.73;0.50;;;12.70;99.90;;;;;;5082927;28;20275;-52
2022/10/25 01:32:18;;;;;;;2.13;0.40;;;12.50;99.90;;;;;;5071970;28;20266;-53
2022/10/25 01:34:50;;;;;;;1.73;0.20;;;12.50;99.90;;;;;;5076241;28;20235;-53
2022/10/25 01:37:24;;;;;;;0.67;0.30;;;12.40;99.90;;;;;;5080155;28;20250;-53
2022/10/25 01:39:59;;;;;;;0.40;0.30;;;12.30;99.90;;;;;;5081308;28;20201;-52
2022/10/25 01:42:35;;;;;;;0.37;0.30;;;12.30;99.90;;;;;;5082140;28;20202;-51
2022/10/25 01:45:08;;;;;;;0.20;0.20;;;12.30;99.90;;;;;;5079293;28;20277;-51
2022/10/25 01:47:41;;;;;;;0.40;0.20;;;12.30;99.90;;;;;;5072033;28;20205;-52
2022/10/25 01:50:12;;;;;;;0.20;0.20;;;12.30;99.90;;;;;;5071826;28;20271;-51
2022/10/25 01:52:39;;;;;;;1.60;0.20;;;12.20;99.90;;;;;;5071705;28;20262;-53
2022/10/25 01:55:10;;;;;;;0.50;0.50;;;12.20;99.90;;;;;;5071327;28;20236;-52
2022/10/25 01:57:52;;;;;;;0.30;0.30;;;12.10;99.90;;;;;;5077007;28;20280;-53
2022/10/25 02:00:21;;;;;;;0.30;0.30;;;12.10;99.90;;;;;;5088303;28;20251;-51
2022/10/25 02:03:14;;;;;;;2.30;0.33;;;12.00;99.90;;;;;;5084015;28;20196;-52
2022/10/25 02:05:54;;;;;;;1.47;0.53;;;12.00;99.90;;;;;;5075605;28;20823;-51
2022/10/25 02:08:28;;;;;;;1.43;0.30;;;12.10;99.90;;;;;;5075824;28;20242;-52
2022/10/25 02:11:05;;;;;;;0.40;0.40;;;12.20;99.90;;;;;;5077548;28;20208;-51
2022/10/25 02:13:40;;;;;;;0.77;0.30;;;12.30;99.90;;;;;;5093602;28;20251;-53
2022/10/25 02:16:11;;;;;;;0.37;0.37;;;12.20;99.90;;;;;;5075466;28;20266;-52
2022/10/25 02:18:43;;;;;;;0.57;0.23;;;12.20;99.90;;;;;;5075550;28;20224;-53
2022/10/25 02:21:12;;;;;;;0.33;0.20;;;12.10;99.90;;;;;;5075492;28;20257;-52
2022/10/25 02:31:18;;;;;;;0.37;0.37;;;12.10;99.90;;;;;;5082795;28;20699;-52
2022/10/25 02:33:50;;;;;;;0.57;0.30;;;12.10;99.90;;;;;;5075255;28;20231;-50
2022/10/25 02:36:21;;;;;;;0.67;0.40;;;12.00;99.90;;;;;;5076131;28;20193;-52
2022/10/25 02:38:52;;;;;;;0.50;0.50;;;12.00;99.90;;;;;;5084462;28;20231;-53
2022/10/25 02:41:21;;;;;;;0.70;0.50;;;12.00;99.90;;;;;;5088383;28;20258;-53
2022/10/25 02:43:48;;;;;;;0.63;0.63;;;12.00;99.90;;;;;;5091528;28;20305;-53
2022/10/25 02:46:17;;;;;;;1.67;0.50;;;12.00;99.90;;;;;;5073685;28;20196;-51
2022/10/25 02:48:47;;;;;;;1.90;0.83;;;12.10;99.90;;;;;;5076523;28;20787;-52
2022/10/25 02:51:17;;;;;;;1.17;0.40;;;12.20;99.90;;;;;;5079937;28;20584;-53
2022/10/25 02:53:44;;;;;;;0.37;0.37;;;12.20;99.90;;;;;;5073970;28;20270;-51
2022/10/25 02:56:13;;;;;;;0.87;0.50;;;12.10;99.90;;;;;;5076093;28;20197;-52
2022/10/25 02:58:42;;;;;;;0.60;0.30;;;12.00;99.90;;;;;;5082583;28;20219;-52
2022/10/25 03:01:10;;;;;;;3.33;0.40;;;12.00;99.90;;;;;;5085832;28;20197;-52
2022/10/25 03:03:37;;;;;;;0.87;0.57;;;11.90;99.90;;;;;;5092366;28;20211;-53
2022/10/25 03:06:05;;;;;;;1.80;0.83;;;12.00;99.90;;;;;;5092632;28;20201;-51
2022/10/25 03:08:33;;;;;;;3.37;0.77;;;11.90;99.90;;;;;;5084030;28;20198;-52
2022/10/25 03:11:01;;;;;;;1.57;0.97;;;11.80;99.90;;;;;;5081266;28;20200;-52
2022/10/25 03:13:28;;;;;;;4.30;0.70;;;11.80;99.90;;;;;;5075405;28;20216;-51
2022/10/25 03:15:55;;;;;;;0.93;0.50;;;11.80;99.90;;;;;;5073645;28;20862;-53
2022/10/25 03:18:22;;;;;;;1.47;0.80;;;11.70;99.90;;;;;;5073815;28;20228;-53
2022/10/25 03:20:49;;;;;;;2.33;0.60;;;11.80;99.90;;;;;;5083238;28;20287;-53
2022/10/25 03:23:17;;;;;;;0.73;0.40;;;11.70;99.90;;;;;;5073273;28;20607;-51
2022/10/25 03:25:45;;;;;;;1.67;0.40;;;11.70;99.90;;;;;;5073614;28;20199;-52
2022/10/25 03:28:12;;;;;;;0.60;0.60;;;11.70;99.90;;;;;;5077007;28;20195;-51
2022/10/25 03:30:42;;;;;;;0.60;0.60;;;11.70;99.90;;;;;;5083679;28;20671;-52
2022/10/25 03:33:10;;;;;;;0.53;0.50;;;11.70;99.90;;;;;;5091898;28;20632;-52
2022/10/25 03:35:37;;;;;;;2.20;0.53;;;11.70;99.90;;;;;;5092194;28;20190;-52
2022/10/25 03:38:03;;;;;;;0.67;0.67;;;11.70;99.90;;;;;;5088302;28;20219;-53
2022/10/25 03:40:31;;;;;;;1.90;0.30;;;11.70;99.90;;;;;;5080908;28;20200;-52
2022/10/25 03:42:59;;;;;;;0.60;0.60;;;11.70;99.90;;;;;;5073126;28;20266;-55
2022/10/25 03:45:26;;;;;;;1.03;0.60;;;11.80;99.90;;;;;;5072799;28;20262;-52
2022/10/25 03:47:53;;;;;;;1.03;0.40;;;11.80;99.90;;;;;;5089324;28;20254;-51
2022/10/25 03:50:20;;;;;;;0.70;0.40;;;11.80;99.90;;;;;;5087515;28;20194;-53
2022/10/25 03:52:47;;;;;;;2.30;0.60;;;11.80;99.90;;;;;;5076591;28;20201;-52
2022/10/25 03:55:14;;;;;;;3.30;0.60;;;11.80;99.90;;;;;;5084826;28;20767;-52
2022/10/25 03:57:41;;;;;;;1.37;0.90;;;11.80;99.90;;;;;;5093302;28;20207;-51
2022/10/25 04:00:11;;;;;;;0.40;0.40;;;11.90;99.90;;;;;;5081774;28;20269;-52
2022/10/25 04:02:38;;;;;;;0.50;0.40;;;12.00;99.90;;;;;;5088691;28;20248;-52
2022/10/25 04:05:06;;;;;;;1.13;0.43;;;12.00;99.90;;;;;;5084977;28;20828;-51
2022/10/25 04:07:33;;;;;;;0.50;0.50;;;12.00;99.90;;;;;;5093685;28;20210;-51
2022/10/25 04:10:00;;;;;;;2.00;0.60;;;11.90;99.90;;;;;;5084112;28;20195;-51
2022/10/25 04:12:27;;;;;;;1.60;0.50;;;11.90;99.90;;;;;;5087593;28;20202;-53
2022/10/25 04:14:54;;;;;;;0.70;0.70;;;11.90;99.90;;;;;;5083958;28;20246;-51
2022/10/25 04:17:22;;;;;;;2.97;1.43;;;11.90;99.90;;;;;;5077527;28;20219;-53
2022/10/25 04:19:49;;;;;;;1.10;0.37;;;11.90;99.90;;;;;;5075893;28;20215;-52
2022/10/25 04:22:16;;;;;;;2.00;0.40;;;11.90;99.90;;;;;;5087149;28;20200;-52
2022/10/25 04:24:43;;;;;;;1.43;0.50;;;11.90;99.90;;;;;;5081330;28;20278;-51
2022/10/25 04:27:10;;;;;;;0.50;0.50;;;11.80;99.90;;;;;;5080286;28;20204;-50
2022/10/25 04:29:37;;;;;;;0.70;0.53;;;11.80;99.90;;;;;;5078029;28;20199;-54
2022/10/25 04:32:05;;;;;;;0.80;0.80;;;11.80;99.90;;;;;;5088232;28;20660;-52
2022/10/25 04:34:35;;;;;;;2.63;0.97;;;11.90;99.90;;;;;;5086543;28;20228;-51
2022/10/25 04:37:03;;;;;;;0.87;0.67;;;11.90;99.90;;;;;;5129439;22;20253;-50
2022/10/25 04:39:30;;;;;;;4.57;0.70;;;11.80;99.90;;;;;;5112103;28;20640;-49
2022/10/25 04:41:57;;;;;;;1.63;0.50;;;11.80;99.90;;;;;;5111001;28;20198;-50
2022/10/25 04:44:24;;;;;;;1.90;0.70;;;11.80;99.90;;;;;;5104056;28;20200;-50
2022/10/25 04:46:51;;;;;;;0.93;0.57;;;11.90;99.90;;;;;;5107937;28;20217;-49
2022/10/25 04:49:18;;;;;;;0.50;0.50;;;11.90;99.90;;;;;;5087585;28;20282;-50
2022/10/25 04:51:46;;;;;;;0.73;0.50;;;11.80;99.90;;;;;;5082520;28;20693;-50
2022/10/25 04:54:14;;;;;;;1.40;0.50;;;11.80;99.90;;;;;;5072284;28;20191;-51
2022/10/25 04:56:41;;;;;;;0.40;0.30;;;11.80;99.90;;;;;;5076599;28;20644;-50
2022/10/25 04:59:09;;;;;;;8.27;3.73;;;11.70;99.90;;;;;;5072256;28;20754;-50
2022/10/25 05:01:36;;;;;;;2.70;1.80;;;11.70;99.90;;;;;;5072338;28;20238;-50
2022/10/25 05:04:03;;;;;;;4.77;4.40;;;11.70;99.90;;;;;;5072033;28;20201;-51
2022/10/25 05:06:30;;;;;;;2.00;1.80;;;11.70;99.90;;;;;;5072388;28;20227;-49
2022/10/25 05:08:59;;;;;;;11.83;10.83;;;11.70;99.90;;;;;;5072904;28;20240;-50
2022/10/25 05:11:26;;;;;;;8.07;7.37;;;11.70;99.90;;;;;;5071172;28;20199;-49
2022/10/25 05:13:53;;;;;;;4.33;3.97;;;11.70;99.90;;;;;;5085343;28;20197;-49
2022/10/25 05:16:23;;;;;;;4.03;2.83;;;11.70;99.90;;;;;;5084803;28;20277;-49
2022/10/25 05:18:55;;;;;;;2.07;1.97;;;11.80;99.90;;;;;;5079669;28;20222;-49
2022/10/25 05:21:27;;;;;;;1.53;1.43;;;11.80;99.90;;;;;;5074924;28;20792;-50
2022/10/25 05:23:54;;;;;;;1.83;0.90;;;11.80;99.90;;;;;;5077254;28;20214;-50
2022/10/25 05:26:22;;;;;;;0.67;0.67;;;11.80;99.90;;;;;;5072946;28;20220;-49
2022/10/25 05:28:51;;;;;;;1.13;1.07;;;11.80;99.90;;;;;;5071144;28;20239;-48
2022/10/25 05:31:21;;;;;;;1.97;1.10;;;11.90;99.90;;;;;;5086444;28;20201;-50
2022/10/25 05:33:54;;;;;;;3.05;1.17;;;11.90;99.90;;;;;;5080830;28;20442;-49
2022/10/25 05:36:21;;;;;;;4.27;1.87;;;12.00;99.90;;;;;;5070539;28;20227;-49
2022/10/25 05:38:52;;;;;;;0.90;0.90;;;11.90;99.90;;;;;;5071582;28;20215;-49
2022/10/25 05:41:19;;;;;;;1.90;0.70;;;11.80;99.90;;;;;;5072406;28;20198;-49
2022/10/25 05:43:51;;;;;;;1.80;1.63;;;11.80;99.90;;;;;;5087525;28;20209;-50
2022/10/25 05:46:20;;;;;;;2.57;1.20;;;11.80;99.90;;;;;;5075872;28;20224;-50
2022/10/25 05:48:52;;;;;;;5.17;1.10;;;11.80;99.90;;;;;;5089602;28;20248;-48
2022/10/25 05:51:22;;;;;;;2.33;2.10;;;11.70;99.90;;;;;;5088509;28;20651;-49
2022/10/25 05:53:54;;;;;;;3.13;1.83;;;11.70;99.90;;;;;;5082821;28;20246;-50
2022/10/25 05:56:23;;;;;;;2.23;2.03;;;11.70;99.90;;;;;;5070491;28;20247;-50
2022/10/25 05:58:55;;;;;;;4.80;2.03;;;11.80;99.90;;;;;;5070729;28;20209;-49
2022/10/25 06:01:24;;;;;;;2.67;2.43;;;11.70;99.90;;;;;;5072973;28;20678;-50
2022/10/25 06:03:55;;;;;;;3.37;1.83;;;11.70;99.90;;;;;;5090288;28;20625;-49
2022/10/25 06:06:23;;;;;;;6.27;1.63;;;11.70;99.90;;;;;;5074193;28;20274;-49
2022/10/25 06:08:55;;;;;;;2.20;1.67;;;11.80;99.90;;;;;;5070765;28;20192;-49
2022/10/25 06:11:23;;;;;;;5.03;1.27;;;11.80;99.90;;;;;;5070112;28;20215;-48
2022/10/25 06:13:54;;;;;;;2.43;1.70;;;11.90;99.90;;;;;;5086689;28;20625;-47
2022/10/25 06:16:22;;;;;;;2.47;1.73;;;11.90;99.90;;;;;;5070398;28;20208;-47
2022/10/25 06:18:53;;;;;;;3.07;1.10;;;12.00;99.90;;;;;;5070301;28;20211;-47
2022/10/25 06:21:22;;;;;;;1.90;1.53;;;12.00;99.90;;;;;;5076538;28;20200;-48
2022/10/25 06:23:52;;;;;;;3.40;1.70;;;12.10;99.90;;;;;;5085698;28;20673;-48
2022/10/25 06:26:21;;;;;;;2.00;1.37;;;12.10;99.90;;;;;;5081682;28;20209;-48
2022/10/25 06:28:53;;;;;;;2.93;1.47;;;12.10;99.90;;;;;;5082519;28;20211;-48
2022/10/25 06:31:22;;;;;;;3.00;1.17;;;12.10;99.90;;;;;;5070318;28;20204;-48
2022/10/25 06:33:51;;;;;;;1.10;0.90;;;12.10;99.90;;;;;;5086677;28;20262;-49
2022/10/25 06:36:20;;;;;;;1.07;0.97;;;12.10;99.90;;;;;;5075129;28;20280;-47
2022/10/25 06:38:50;;;;;;;3.13;0.80;;;12.00;99.90;;;;;;5070460;28;20276;-49
2022/10/25 06:41:19;;;;;;;1.10;1.00;;;12.00;99.90;;;;;;5070220;28;20685;-48
2022/10/25 06:43:47;;;;;;;0.83;0.83;;;12.00;99.90;;;;;;5075260;28;20622;-47
2022/10/25 06:46:20;;;;;;;2.23;0.83;;;12.00;99.90;;;;;;5078602;28;20277;-48
2022/10/25 06:48:53;;;;;;;2.63;0.87;;;12.00;99.90;;;;;;5073716;28;20609;-48
2022/10/25 06:51:20;;;;;;;0.40;0.40;;;12.10;99.90;;;;;;5070011;28;20764;-48
2022/10/25 06:53:54;;;;;;;1.67;0.60;;;12.10;99.90;;;;;;5028415;28;20244;-48
2022/10/25 06:56:21;;;;;;;0.80;0.80;;;12.20;99.90;;;;;;5043682;28;20217;-47
2022/10/25 06:58:48;;;;;;;2.83;0.60;;;12.20;99.90;;;;;;5048368;28;20908;-48
2022/10/25 07:01:17;;;;;;;1.77;0.70;;;12.20;99.90;;;;;;5036603;28;20204;-47
2022/10/25 07:03:45;;;;;;;0.70;0.70;;;12.30;99.90;;;;;;5037004;28;20201;-48
2022/10/25 07:06:16;;;;;;;1.40;0.80;;;12.30;99.90;;;;;;5037372;28;20645;-48
2022/10/25 07:08:44;;;;;;;2.07;0.60;;;12.40;99.90;;;;;;5040314;28;20209;-48
2022/10/25 07:11:15;;;;;;;2.00;0.60;;;12.40;99.90;;;;;;5042536;28;20197;-47
2022/10/25 07:13:42;;;;;;;1.50;0.60;;;12.40;99.90;;;;;;5035406;28;20208;-48
2022/10/25 07:16:10;;;;;;;2.77;1.27;;;12.50;99.90;;;;;;5038454;28;20271;-48
2022/10/25 07:18:37;;;;;;;3.33;1.00;;;12.50;99.90;;;;;;5053947;28;20230;-48
2022/10/25 07:21:06;;;;;;;2.50;0.53;;;12.50;99.90;;;;;;5044340;28;20275;-48
2022/10/25 07:23:40;;;;;;;0.67;0.60;;;12.60;99.90;;;;;;5036884;28;20201;-48
2022/10/25 07:26:08;;;;;;;0.97;0.93;;;12.60;99.90;;;;;;5040901;28;20226;-48
2022/10/25 07:28:34;;;;;;;1.93;0.73;;;12.60;99.90;;;;;;5042194;28;20202;-48
2022/10/25 07:31:01;;;;;;;4.40;1.10;;;12.70;99.90;;;;;;5043486;28;20197;-48
2022/10/25 07:33:30;;;;;;;0.97;0.70;;;12.70;99.90;;;;;;5042563;28;20250;-48
2022/10/25 07:35:58;;;;;;;2.03;0.80;;;12.80;99.90;;;;;;5044556;28;20224;-48
2022/10/25 07:38:25;;;;;;;0.97;0.70;;;12.80;99.90;;;;;;5054001;28;20266;-48
2022/10/25 07:40:57;;;;;;;0.67;0.50;;;12.80;99.90;;;;;;5037648;28;20640;-48
2022/10/25 07:43:25;;;;;;;12.53;0.97;;;12.80;99.90;;;;;;5043095;28;20205;-48
2022/10/25 07:45:52;;;;;;;3.40;0.70;;;12.80;99.90;;;;;;5041448;28;20218;-48
2022/10/25 07:48:19;;;;;;;0.90;0.63;;;12.80;99.90;;;;;;5041907;28;20252;-48
2022/10/25 07:50:46;;;;;;;1.10;0.63;;;12.90;99.90;;;;;;5032882;28;20609;-48
2022/10/25 07:53:13;;;;;;;1.80;0.80;;;12.90;99.90;;;;;;5043405;28;20627;-48
2022/10/25 07:55:40;;;;;;;2.50;0.57;;;13.00;99.90;;;;;;5042172;28;20653;-48
2022/10/25 07:58:11;;;;;;;1.03;0.60;;;12.90;99.90;;;;;;5044537;28;20202;-48
2022/10/25 08:00:39;;;;;;;0.83;0.50;;;13.00;99.90;;;;;;5032910;28;20221;-48
2022/10/25 08:03:06;;;;;;;2.40;0.70;;;13.10;99.90;;;;;;5034799;28;20206;-48
2022/10/25 08:05:33;;;;;;;2.47;0.87;;;13.10;99.90;;;;;;5036742;28;20221;-48
2022/10/25 08:08:00;;;;;;;0.53;0.53;;;13.30;99.90;;;;;;5035406;28;20199;-48
2022/10/25 08:10:27;;;;;;;0.40;0.40;;;13.30;99.90;;;;;;5032669;28;20187;-48
2022/10/25 08:12:55;;;;;;;2.43;0.30;;;13.30;99.90;;;;;;5032764;28;20216;-48
2022/10/25 08:15:24;;;;;;;2.50;0.80;;;13.40;99.90;;;;;;5037884;28;20439;-49
2022/10/25 08:17:57;;;;;;;2.17;0.40;;;13.50;99.90;;;;;;5033696;28;20194;-47
2022/10/25 08:20:25;;;;;;;1.40;0.40;;;13.70;99.90;;;;;;5043239;28;20213;-48
2022/10/25 08:22:51;;;;;;;1.73;0.43;;;13.80;99.90;;;;;;5048974;28;20198;-49
2022/10/25 08:25:18;;;;;;;2.13;0.37;;;13.80;99.90;;;;;;5038710;28;20214;-47
2022/10/25 08:27:45;;;;;;;0.30;0.30;;;13.90;99.90;;;;;;5047361;28;20252;-48
2022/10/25 08:30:12;;;;;;;0.33;0.30;;;13.90;99.90;;;;;;5051085;28;20186;-47
2022/10/25 08:32:41;;;;;;;0.50;0.30;;;14.00;99.90;;;;;;5042955;28;20255;-48
2022/10/25 08:35:08;;;;;;;1.07;0.57;;;14.00;99.90;;;;;;5035546;28;20226;-48
2022/10/25 08:37:35;;;;;;;2.30;0.20;;;14.00;99.90;;;;;;5046669;28;20198;-48
2022/10/25 08:40:02;;;;;;;0.30;0.30;;;14.00;99.90;;;;;;5050663;28;20642;-48
2022/10/25 08:42:38;;;;;;;0.70;0.30;;;14.30;99.90;;;;;;5031662;28;20317;-48
2022/10/25 08:45:13;;;;;;;0.50;0.50;;;15.00;99.90;;;;;;5032402;28;20287;-49
2022/10/25 08:47:45;;;;;;;1.57;0.30;;;15.90;99.90;;;;;;5031863;28;20198;-49
2022/10/25 08:50:17;;;;;;;3.50;0.70;;;16.80;99.90;;;;;;5046723;28;20259;-49
2022/10/25 08:52:47;;;;;;;0.90;0.27;;;17.70;99.90;;;;;;5038108;28;20203;-48
2022/10/25 08:55:17;;;;;;;1.47;0.50;;;18.60;99.90;;;;;;5039232;28;20773;-48
2022/10/25 08:57:46;;;;;;;3.13;0.30;;;19.20;99.90;;;;;;5036408;28;20619;-49
2022/10/25 09:00:18;;;;;;;1.77;0.60;;;19.60;99.90;;;;;;5050246;28;20224;-49
2022/10/25 09:02:51;;;;;;;0.93;0.57;;;19.80;99.90;;;;;;5048895;28;20197;-49
2022/10/25 09:05:36;;;;;;;0.30;0.30;;;20.00;99.90;;;;;;5034522;28;20214;-49
2022/10/25 09:08:17;;;;;;;0.20;0.20;;;20.30;99.90;;;;;;5031103;28;20198;-48
2022/10/25 09:10:51;;;;;;;0.10;0.10;;;20.50;99.90;;;;;;5037137;28;20197;-50
2022/10/25 09:13:30;;;;;;;1.70;0.30;;;20.40;99.90;;;;;;5048643;28;20210;-49
2022/10/25 09:16:08;;;;;;;0.50;0.10;;;20.60;99.90;;;;;;5032031;28;20222;-49
2022/10/25 09:18:44;;;;;;;1.50;0.20;;;20.50;99.90;;;;;;5031460;28;20194;-49
2022/10/25 09:21:17;;;;;;;2.73;0.23;;;20.40;99.90;;;;;;5031336;28;20248;-49
2022/10/25 09:23:57;;;;;;;4.50;0.30;;;20.40;99.90;;;;;;5031838;28;20203;-49
2022/10/25 09:26:33;;;;;;;0.50;0.10;;;20.70;99.90;;;;;;5033544;28;20615;-48
2022/10/25 09:29:05;;;;;;;2.93;0.30;;;21.10;99.90;;;;;;5044649;28;20209;-48
2022/10/25 09:31:38;;;;;;;0.73;0.27;;;21.20;99.90;;;;;;5051805;28;20197;-48
2022/10/25 09:34:10;;;;;;;1.23;0.93;;;21.50;99.90;;;;;;5046406;28;20210;-48
2022/10/25 09:36:41;;;;;;;0.33;0.20;;;21.50;99.90;;;;;;5048345;28;20226;-48
2022/10/25 09:39:18;;;;;;;0.50;0.20;;;21.10;99.90;;;;;;5051913;28;20259;-48
2022/10/25 09:41:49;;;;;;;0.20;0.20;;;21.20;99.90;;;;;;5051681;28;20299;-49
2022/10/25 09:44:34;;;;;;;0.70;0.43;;;21.10;99.90;;;;;;5039832;28;20205;-49
2022/10/25 09:47:11;;;;;;;1.70;0.27;;;20.90;99.90;;;;;;5043469;28;20221;-49
2022/10/25 09:49:46;;;;;;;2.07;0.23;;;21.00;99.90;;;;;;5051627;28;20560;-48
2022/10/25 09:52:21;;;;;;;1.80;0.30;;;21.20;99.90;;;;;;5041980;28;20264;-48
2022/10/25 09:54:53;;;;;;;1.23;0.30;;;21.10;99.90;;;;;;5039211;28;20254;-47
2022/10/25 09:57:20;;;;;;;0.93;0.40;;;20.70;99.90;;;;;;5045840;28;20285;-50
2022/10/25 09:59:51;;;;;;;0.80;0.30;;;20.70;99.90;;;;;;5051526;28;20633;-48
2022/10/25 10:02:23;;;;;;;0.50;0.30;;;20.30;99.90;;;;;;5047842;28;20202;-49
2022/10/25 10:04:52;;;;;;;1.73;0.50;;;20.30;99.90;;;;;;5040540;28;20628;-48
2022/10/25 10:07:26;;;;;;;2.83;0.20;;;20.50;99.90;;;;;;5045603;28;20252;-48
2022/10/25 10:09:57;;;;;;;0.40;0.20;;;20.10;99.90;;;;;;5037059;28;20202;-49
2022/10/25 10:12:28;;;;;;;0.37;0.37;;;20.20;99.90;;;;;;5046414;28;20194;-49
2022/10/25 10:14:59;;;;;;;0.57;0.37;;;20.30;99.90;;;;;;5040381;28;20659;-49
2022/10/25 10:17:29;;;;;;;0.30;0.30;;;20.60;99.90;;;;;;5046158;28;20198;-48
2022/10/25 10:20:15;;;;;;;0.27;0.20;;;20.60;99.90;;;;;;5039614;28;20611;-49
2022/10/25 10:22:49;;;;;;;0.30;0.20;;;20.60;99.90;;;;;;5052654;28;20201;-49
2022/10/25 10:25:19;;;;;;;0.30;0.10;;;20.60;99.90;;;;;;5043461;28;20214;-49
2022/10/25 10:27:48;;;;;;;0.57;0.20;;;20.20;99.90;;;;;;5046940;28;20203;-49
2022/10/25 10:30:24;;;;;;;5.20;0.40;;;20.00;99.90;;;;;;5045717;28;20204;-49
2022/10/25 10:32:55;;;;;;;1.23;0.40;;;19.70;99.90;;;;;;5037204;28;20205;-48
2022/10/25 10:35:29;;;;;;;2.63;0.27;;;19.60;99.90;;;;;;5039008;28;20230;-48
2022/10/25 10:38:21;;;;;;;0.70;0.20;;;19.50;99.90;;;;;;5044673;28;20279;-49
2022/10/25 10:40:48;;;;;;;0.20;0.20;;;19.30;99.90;;;;;;5047006;28;20646;-48
2022/10/25 10:43:33;;;;;;;0.33;0.33;;;19.20;99.90;;;;;;5033463;28;20897;-48
2022/10/25 10:46:03;;;;;;;0.20;0.20;;;19.10;99.90;;;;;;5034718;28;20309;-48
2022/10/25 10:48:37;;;;;;;5.07;0.65;;;18.90;99.90;;;;;;5038901;28;20452;-48
2022/10/25 10:51:06;;;;;;;0.40;0.30;;;19.00;99.90;;;;;;5042420;28;20733;-48
2022/10/25 10:53:33;;;;;;;0.30;0.30;;;18.90;99.90;;;;;;5040391;28;20221;-48
2022/10/25 10:56:04;;;;;;;1.20;0.20;;;18.80;99.90;;;;;;5039666;28;20229;-47
2022/10/25 10:58:34;;;;;;;2.20;0.33;;;19.00;99.90;;;;;;5037353;28;20194;-48
2022/10/25 11:01:03;;;;;;;13.30;0.63;;;19.00;99.90;;;;;;5035553;28;20217;-48
2022/10/25 11:03:39;;;;;;;4.27;0.43;;;19.00;99.90;;;;;;5034801;28;20221;-48
2022/10/25 11:06:12;;;;;;;0.97;0.50;;;19.00;99.90;;;;;;5033746;28;20222;-48
2022/10/25 11:08:39;;;;;;;2.53;0.40;;;18.90;99.90;;;;;;5039746;28;20305;-48
2022/10/25 11:11:17;;;;;;;0.47;0.30;;;18.90;99.90;;;;;;5042282;28;20194;-50
2022/10/25 11:13:52;;;;;;;0.30;0.30;;;19.00;99.90;;;;;;5049853;28;20197;-50
2022/10/25 11:16:40;;;;;;;3.97;0.37;;;19.00;99.90;;;;;;5051899;28;20225;-50
2022/10/25 11:19:28;;;;;;;0.30;0.30;;;18.90;99.90;;;;;;5049252;28;20233;-50
2022/10/25 11:22:12;;;;;;;1.07;0.50;;;18.70;99.90;;;;;;5031889;28;20723;-50
2022/10/25 11:24:52;;;;;;;0.73;0.30;;;18.80;99.90;;;;;;5038327;28;20850;-51
2022/10/25 11:27:28;;;;;;;2.10;0.40;;;18.80;99.90;;;;;;5041720;28;20205;-50
2022/10/25 11:30:12;;;;;;;0.60;0.40;;;18.80;99.90;;;;;;5039181;28;20251;-50
2022/10/25 11:33:20;;;;;;;1.00;0.30;;;18.80;99.90;;;;;;5035297;28;20206;-50
2022/10/25 11:36:22;;;;;;;0.50;0.40;;;18.90;99.90;;;;;;5047684;22;20230;-50
2022/10/25 11:39:06;;;;;;;0.73;0.30;;;19.00;99.90;;;;;;4979823;28;20664;-50
2022/10/25 11:41:43;;;;;;;1.70;0.30;;;19.10;99.90;;;;;;5006227;28;20950;-50
2022/10/25 11:44:25;;;;;;;0.30;0.30;;;19.10;99.90;;;;;;5005563;28;20211;-51
2022/10/25 11:47:02;;;;;;;2.13;0.30;;;19.10;99.90;;;;;;4988232;28;20208;-50
2022/10/25 11:49:41;;;;;;;1.83;0.30;;;19.00;99.90;;;;;;4993155;28;20207;-51
2022/10/25 11:52:37;;;;;;;2.00;0.30;;;19.00;99.90;;;;;;4985106;28;20278;-51
2022/10/25 11:55:19;;;;;;;2.57;0.30;;;19.00;99.90;;;;;;4982025;28;20219;-50
2022/10/25 11:57:53;;;;;;;2.43;0.23;;;19.00;99.90;;;;;;4992210;28;20210;-50
2022/10/25 12:00:23;;;;;;;0.73;0.20;;;18.90;99.90;;;;;;4992506;28;20214;-50
2022/10/25 12:03:17;;;;;;;1.43;0.30;;;18.90;99.90;;;;;;4991050;28;20199;-50
2022/10/25 12:05:51;;;;;;;0.70;0.40;;;18.80;99.90;;;;;;4987467;28;20721;-50
2022/10/25 12:08:29;;;;;;;1.00;0.80;;;18.70;99.90;;;;;;4990935;28;20282;-50
2022/10/25 12:11:03;;;;;;;1.23;1.20;;;18.70;99.90;;;;;;4991020;28;20203;-51
2022/10/25 12:13:33;;;;;;;1.30;1.27;;;18.70;99.90;;;;;;4990065;28;20199;-50
2022/10/25 12:16:03;;;;;;;1.17;1.00;;;18.70;99.90;;;;;;4992230;28;20310;-50
2022/10/25 12:18:34;;;;;;;4.23;1.07;;;18.60;99.90;;;;;;4988105;28;20258;-50
2022/10/25 12:21:03;;;;;;;2.40;1.37;;;18.60;99.90;;;;;;4989781;28;20227;-50
2022/10/25 12:23:43;;;;;;;2.67;1.70;;;18.60;99.90;;;;;;4992018;28;20199;-51
2022/10/25 12:26:25;;;;;;;3.97;1.80;;;18.50;99.90;;;;;;4990015;28;20212;-50
2022/10/25 12:28:54;;;;;;;2.50;1.70;;;18.50;99.90;;;;;;4991475;28;20196;-49
2022/10/25 12:31:25;;;;;;;1.63;1.53;;;18.40;99.90;;;;;;4991534;28;20686;-50
2022/10/25 12:33:58;;;;;;;4.87;1.90;;;18.40;99.90;;;;;;4990476;28;20200;-51
2022/10/25 12:36:31;;;;;;;1.30;1.20;;;18.40;99.90;;;;;;4987773;28;20223;-51
2022/10/25 12:39:00;;;;;;;1.60;1.50;;;18.50;99.90;;;;;;4991637;28;20223;-50
2022/10/25 12:41:34;;;;;;;4.73;1.27;;;18.50;99.90;;;;;;4990670;28;20211;-50
2022/10/25 12:44:17;;;;;;;1.93;1.83;;;18.50;99.90;;;;;;4991885;28;20199;-50
2022/10/25 12:47:02;;;;;;;1.70;1.60;;;18.50;99.90;;;;;;4990155;28;20220;-51
2022/10/25 12:49:48;;;;;;;1.90;1.60;;;18.50;99.90;;;;;;4987217;28;20644;-50
2022/10/25 12:52:34;;;;;;;4.03;1.30;;;18.50;99.90;;;;;;4991782;28;20204;-50
2022/10/25 12:55:49;;;;;;;1.27;0.97;;;18.60;99.90;;;;;;4991483;28;20658;-50
2022/10/25 12:58:31;;;;;;;0.93;0.70;;;18.50;99.90;;;;;;4911474;29;20644;-52
2022/10/25 13:01:23;;;;;;;1.23;1.13;;;18.40;99.90;;;;;;4979671;28;20223;-50
2022/10/25 13:04:23;;;;;;;0.90;0.90;;;18.30;99.90;;;;;;4991483;28;20644;-51
2022/10/25 13:06:52;;;;;;;0.60;0.40;;;18.30;99.90;;;;;;4985112;28;20215;-51
2022/10/25 13:09:21;;;;;;;1.63;0.50;;;18.40;99.90;;;;;;4986565;28;20249;-51
2022/10/25 13:11:55;;;;;;;2.83;0.70;;;18.40;99.90;;;;;;4991424;28;20192;-51
2022/10/25 13:14:28;;;;;;;4.53;0.80;;;18.40;99.90;;;;;;4991219;28;20238;-50
2022/10/25 13:17:27;;;;;;;0.50;0.50;;;18.40;99.90;;;;;;4990417;28;20196;-50